sensor_id;sensor_type;location;lat;lon;timestamp;P1;durP1;ratioP1;P2;durP2;ratioP2
11443;SDS011;5778;47.856;12.154;2022-12-20T00:00:55;33.57;;;22.37;;
11443;SDS011;5778;47.856;12.154;2022-12-20T00:03:22;32.50;;;21.50;;
11443;SDS011;5778;47.856;12.154;2022-12-20T00:05:50;33.00;;;21.30;;
11443;SDS011;5778;47.856;12.154;2022-12-20T00:08:17;33.00;;;21.40;;
11443;SDS011;5778;47.856;12.154;2022-12-20T00:10:44;34.33;;;21.87;;
11443;SDS011;5778;47.856;12.154;2022-12-20T00:13:12;34.43;;;21.07;;
11443;SDS011;5778;47.856;12.154;2022-12-20T00:15:39;34.17;;;21.53;;
11443;SDS011;5778;47.856;12.154;2022-12-20T00:18:07;37.20;;;22.43;;
11443;SDS011;5778;47.856;12.154;2022-12-20T00:20:33;35.07;;;22.50;;
11443;SDS011;5778;47.856;12.154;2022-12-20T00:23:00;36.83;;;22.90;;
11443;SDS011;5778;47.856;12.154;2022-12-20T00:25:28;36.60;;;22.47;;
11443;SDS011;5778;47.856;12.154;2022-12-20T00:27:54;38.07;;;23.50;;
11443;SDS011;5778;47.856;12.154;2022-12-20T00:30:23;38.97;;;23.53;;
11443;SDS011;5778;47.856;12.154;2022-12-20T00:32:50;33.70;;;22.57;;
11443;SDS011;5778;47.856;12.154;2022-12-20T00:35:18;34.97;;;22.23;;
11443;SDS011;5778;47.856;12.154;2022-12-20T00:37:45;35.10;;;23.57;;
11443;SDS011;5778;47.856;12.154;2022-12-20T00:40:12;31.77;;;21.23;;
11443;SDS011;5778;47.856;12.154;2022-12-20T00:42:39;34.67;;;22.03;;
11443;SDS011;5778;47.856;12.154;2022-12-20T00:45:06;35.80;;;22.33;;
11443;SDS011;5778;47.856;12.154;2022-12-20T00:47:36;38.57;;;24.53;;
11443;SDS011;5778;47.856;12.154;2022-12-20T00:50:03;32.17;;;21.77;;
11443;SDS011;5778;47.856;12.154;2022-12-20T00:52:32;35.13;;;21.90;;
11443;SDS011;5778;47.856;12.154;2022-12-20T00:54:59;33.80;;;21.37;;
11443;SDS011;5778;47.856;12.154;2022-12-20T00:57:26;32.93;;;20.90;;
11443;SDS011;5778;47.856;12.154;2022-12-20T00:59:53;35.20;;;21.83;;
11443;SDS011;5778;47.856;12.154;2022-12-20T01:02:20;38.00;;;22.87;;
11443;SDS011;5778;47.856;12.154;2022-12-20T01:04:49;35.67;;;22.33;;
11443;SDS011;5778;47.856;12.154;2022-12-20T01:07:16;37.03;;;22.87;;
11443;SDS011;5778;47.856;12.154;2022-12-20T01:09:44;33.10;;;21.70;;
11443;SDS011;5778;47.856;12.154;2022-12-20T01:12:11;35.73;;;23.07;;
11443;SDS011;5778;47.856;12.154;2022-12-20T01:14:38;37.50;;;23.63;;
11443;SDS011;5778;47.856;12.154;2022-12-20T01:17:05;36.43;;;23.30;;
11443;SDS011;5778;47.856;12.154;2022-12-20T01:19:32;39.93;;;23.47;;
11443;SDS011;5778;47.856;12.154;2022-12-20T01:22:01;37.10;;;22.77;;
11443;SDS011;5778;47.856;12.154;2022-12-20T01:24:28;35.57;;;23.30;;
11443;SDS011;5778;47.856;12.154;2022-12-20T01:26:55;39.10;;;23.57;;
11443;SDS011;5778;47.856;12.154;2022-12-20T01:29:23;39.13;;;25.60;;
11443;SDS011;5778;47.856;12.154;2022-12-20T01:31:50;36.53;;;25.57;;
11443;SDS011;5778;47.856;12.154;2022-12-20T01:34:19;37.07;;;24.10;;
11443;SDS011;5778;47.856;12.154;2022-12-20T01:36:45;37.70;;;23.33;;
11443;SDS011;5778;47.856;12.154;2022-12-20T01:39:15;39.67;;;24.13;;
11443;SDS011;5778;47.856;12.154;2022-12-20T01:41:43;38.57;;;23.27;;
11443;SDS011;5778;47.856;12.154;2022-12-20T01:47:30;38.70;;;23.70;;
11443;SDS011;5778;47.856;12.154;2022-12-20T01:50:00;34.27;;;23.20;;
11443;SDS011;5778;47.856;12.154;2022-12-20T01:52:31;39.43;;;24.00;;
11443;SDS011;5778;47.856;12.154;2022-12-20T01:55:04;38.13;;;22.47;;
11443;SDS011;5778;47.856;12.154;2022-12-20T01:57:36;37.80;;;21.90;;
11443;SDS011;5778;47.856;12.154;2022-12-20T02:00:08;34.33;;;21.50;;
11443;SDS011;5778;47.856;12.154;2022-12-20T02:02:42;32.47;;;21.77;;
11443;SDS011;5778;47.856;12.154;2022-12-20T02:05:12;35.93;;;22.10;;
11443;SDS011;5778;47.856;12.154;2022-12-20T02:07:43;33.17;;;20.80;;
11443;SDS011;5778;47.856;12.154;2022-12-20T02:10:17;35.43;;;22.20;;
11443;SDS011;5778;47.856;12.154;2022-12-20T02:12:46;34.53;;;22.60;;
11443;SDS011;5778;47.856;12.154;2022-12-20T02:15:20;31.77;;;21.07;;
11443;SDS011;5778;47.856;12.154;2022-12-20T02:18:05;34.00;;;21.87;;
11443;SDS011;5778;47.856;12.154;2022-12-20T02:23:41;33.20;;;21.97;;
11443;SDS011;5778;47.856;12.154;2022-12-20T02:26:27;35.23;;;22.40;;
11443;SDS011;5778;47.856;12.154;2022-12-20T02:29:09;33.90;;;21.93;;
11443;SDS011;5778;47.856;12.154;2022-12-20T02:31:48;34.90;;;23.50;;
11443;SDS011;5778;47.856;12.154;2022-12-20T02:34:22;37.17;;;24.03;;
11443;SDS011;5778;47.856;12.154;2022-12-20T02:36:51;35.93;;;23.67;;
11443;SDS011;5778;47.856;12.154;2022-12-20T02:39:19;35.37;;;23.30;;
11443;SDS011;5778;47.856;12.154;2022-12-20T02:41:49;33.30;;;21.47;;
11443;SDS011;5778;47.856;12.154;2022-12-20T02:44:21;33.03;;;21.73;;
11443;SDS011;5778;47.856;12.154;2022-12-20T02:47:11;30.67;;;20.83;;
11443;SDS011;5778;47.856;12.154;2022-12-20T02:49:43;30.37;;;20.23;;
11443;SDS011;5778;47.856;12.154;2022-12-20T02:52:12;33.93;;;20.33;;
11443;SDS011;5778;47.856;12.154;2022-12-20T02:54:41;30.97;;;20.37;;
11443;SDS011;5778;47.856;12.154;2022-12-20T02:57:09;31.20;;;20.60;;
11443;SDS011;5778;47.856;12.154;2022-12-20T02:59:44;31.73;;;20.10;;
11443;SDS011;5778;47.856;12.154;2022-12-20T03:02:16;34.07;;;21.00;;
11443;SDS011;5778;47.856;12.154;2022-12-20T03:04:44;32.70;;;20.47;;
11443;SDS011;5778;47.856;12.154;2022-12-20T03:07:13;33.17;;;20.70;;
11443;SDS011;5778;47.856;12.154;2022-12-20T03:09:42;31.83;;;20.77;;
11443;SDS011;5778;47.856;12.154;2022-12-20T03:12:13;30.47;;;19.60;;
11443;SDS011;5778;47.856;12.154;2022-12-20T03:14:42;32.33;;;20.60;;
11443;SDS011;5778;47.856;12.154;2022-12-20T03:17:11;33.87;;;21.40;;
11443;SDS011;5778;47.856;12.154;2022-12-20T03:19:40;37.07;;;21.27;;
11443;SDS011;5778;47.856;12.154;2022-12-20T03:22:07;37.53;;;22.43;;
11443;SDS011;5778;47.856;12.154;2022-12-20T03:24:34;37.93;;;23.47;;
11443;SDS011;5778;47.856;12.154;2022-12-20T03:27:07;35.10;;;22.67;;
11443;SDS011;5778;47.856;12.154;2022-12-20T03:29:34;34.50;;;21.93;;
11443;SDS011;5778;47.856;12.154;2022-12-20T03:32:01;35.67;;;22.13;;
11443;SDS011;5778;47.856;12.154;2022-12-20T03:34:28;33.37;;;21.10;;
11443;SDS011;5778;47.856;12.154;2022-12-20T03:36:57;31.60;;;21.67;;
11443;SDS011;5778;47.856;12.154;2022-12-20T03:39:24;34.30;;;21.10;;
11443;SDS011;5778;47.856;12.154;2022-12-20T03:41:53;32.70;;;21.57;;
11443;SDS011;5778;47.856;12.154;2022-12-20T03:44:21;31.60;;;21.03;;
11443;SDS011;5778;47.856;12.154;2022-12-20T03:46:50;31.40;;;20.20;;
11443;SDS011;5778;47.856;12.154;2022-12-20T03:49:19;30.67;;;20.23;;
11443;SDS011;5778;47.856;12.154;2022-12-20T03:51:49;30.67;;;20.27;;
11443;SDS011;5778;47.856;12.154;2022-12-20T03:54:18;33.70;;;21.00;;
11443;SDS011;5778;47.856;12.154;2022-12-20T03:57:05;33.37;;;20.47;;
11443;SDS011;5778;47.856;12.154;2022-12-20T03:59:33;31.83;;;19.87;;
11443;SDS011;5778;47.856;12.154;2022-12-20T04:02:02;31.63;;;20.70;;
11443;SDS011;5778;47.856;12.154;2022-12-20T04:04:30;32.73;;;20.40;;
11443;SDS011;5778;47.856;12.154;2022-12-20T04:06:58;32.77;;;20.97;;
11443;SDS011;5778;47.856;12.154;2022-12-20T04:09:27;34.90;;;21.27;;
11443;SDS011;5778;47.856;12.154;2022-12-20T04:12:03;31.80;;;20.57;;
11443;SDS011;5778;47.856;12.154;2022-12-20T04:14:33;28.57;;;19.20;;
11443;SDS011;5778;47.856;12.154;2022-12-20T04:17:01;28.93;;;19.87;;
11443;SDS011;5778;47.856;12.154;2022-12-20T04:19:29;29.20;;;18.30;;
11443;SDS011;5778;47.856;12.154;2022-12-20T04:21:57;30.73;;;19.17;;
11443;SDS011;5778;47.856;12.154;2022-12-20T04:24:32;26.07;;;17.10;;
11443;SDS011;5778;47.856;12.154;2022-12-20T04:27:11;26.40;;;17.87;;
11443;SDS011;5778;47.856;12.154;2022-12-20T04:29:39;27.80;;;17.97;;
11443;SDS011;5778;47.856;12.154;2022-12-20T04:32:10;28.37;;;17.70;;
11443;SDS011;5778;47.856;12.154;2022-12-20T04:34:38;28.80;;;18.67;;
11443;SDS011;5778;47.856;12.154;2022-12-20T04:37:05;31.90;;;20.60;;
11443;SDS011;5778;47.856;12.154;2022-12-20T04:39:53;32.00;;;20.80;;
11443;SDS011;5778;47.856;12.154;2022-12-20T04:42:24;28.37;;;19.47;;
11443;SDS011;5778;47.856;12.154;2022-12-20T04:44:53;35.30;;;21.20;;
11443;SDS011;5778;47.856;12.154;2022-12-20T04:47:24;33.70;;;20.60;;
11443;SDS011;5778;47.856;12.154;2022-12-20T04:49:52;32.23;;;20.97;;
11443;SDS011;5778;47.856;12.154;2022-12-20T04:52:19;30.47;;;20.57;;
11443;SDS011;5778;47.856;12.154;2022-12-20T04:55:08;35.03;;;21.90;;
11443;SDS011;5778;47.856;12.154;2022-12-20T04:57:35;34.70;;;21.37;;
11443;SDS011;5778;47.856;12.154;2022-12-20T05:00:05;36.33;;;22.43;;
11443;SDS011;5778;47.856;12.154;2022-12-20T05:02:38;35.90;;;22.70;;
11443;SDS011;5778;47.856;12.154;2022-12-20T05:05:09;37.67;;;23.10;;
11443;SDS011;5778;47.856;12.154;2022-12-20T05:07:43;35.70;;;23.20;;
11443;SDS011;5778;47.856;12.154;2022-12-20T05:10:12;37.63;;;23.43;;
11443;SDS011;5778;47.856;12.154;2022-12-20T05:12:39;38.63;;;23.67;;
11443;SDS011;5778;47.856;12.154;2022-12-20T05:15:11;36.83;;;23.13;;
11443;SDS011;5778;47.856;12.154;2022-12-20T05:17:39;36.67;;;22.70;;
11443;SDS011;5778;47.856;12.154;2022-12-20T05:20:06;37.57;;;22.13;;
11443;SDS011;5778;47.856;12.154;2022-12-20T05:22:36;37.03;;;22.20;;
11443;SDS011;5778;47.856;12.154;2022-12-20T05:25:35;32.87;;;21.10;;
11443;SDS011;5778;47.856;12.154;2022-12-20T05:28:30;35.57;;;20.73;;
11443;SDS011;5778;47.856;12.154;2022-12-20T05:30:57;32.77;;;19.83;;
11443;SDS011;5778;47.856;12.154;2022-12-20T05:33:24;31.40;;;20.17;;
11443;SDS011;5778;47.856;12.154;2022-12-20T05:35:51;28.07;;;18.93;;
11443;SDS011;5778;47.856;12.154;2022-12-20T05:38:19;31.30;;;20.63;;
11443;SDS011;5778;47.856;12.154;2022-12-20T05:40:47;34.87;;;20.23;;
11443;SDS011;5778;47.856;12.154;2022-12-20T05:43:15;32.50;;;21.03;;
11443;SDS011;5778;47.856;12.154;2022-12-20T05:45:45;30.67;;;20.40;;
11443;SDS011;5778;47.856;12.154;2022-12-20T05:48:14;31.87;;;20.37;;
11443;SDS011;5778;47.856;12.154;2022-12-20T05:50:42;30.63;;;20.40;;
11443;SDS011;5778;47.856;12.154;2022-12-20T05:53:25;29.30;;;20.10;;
11443;SDS011;5778;47.856;12.154;2022-12-20T05:55:57;30.77;;;20.07;;
11443;SDS011;5778;47.856;12.154;2022-12-20T05:58:29;30.27;;;20.30;;
11443;SDS011;5778;47.856;12.154;2022-12-20T06:00:59;31.50;;;20.03;;
11443;SDS011;5778;47.856;12.154;2022-12-20T06:03:27;28.27;;;19.50;;
11443;SDS011;5778;47.856;12.154;2022-12-20T06:05:56;33.07;;;20.13;;
11443;SDS011;5778;47.856;12.154;2022-12-20T06:08:26;29.43;;;19.47;;
11443;SDS011;5778;47.856;12.154;2022-12-20T06:10:54;33.77;;;20.07;;
11443;SDS011;5778;47.856;12.154;2022-12-20T06:13:24;32.93;;;20.93;;
11443;SDS011;5778;47.856;12.154;2022-12-20T06:15:52;31.60;;;22.33;;
11443;SDS011;5778;47.856;12.154;2022-12-20T06:18:20;32.23;;;23.33;;
11443;SDS011;5778;47.856;12.154;2022-12-20T06:20:49;39.87;;;26.53;;
11443;SDS011;5778;47.856;12.154;2022-12-20T06:23:20;38.50;;;25.37;;
11443;SDS011;5778;47.856;12.154;2022-12-20T06:26:04;33.33;;;23.77;;
11443;SDS011;5778;47.856;12.154;2022-12-20T06:28:37;35.93;;;23.17;;
11443;SDS011;5778;47.856;12.154;2022-12-20T06:31:07;38.43;;;25.10;;
11443;SDS011;5778;47.856;12.154;2022-12-20T06:33:46;32.53;;;21.10;;
11443;SDS011;5778;47.856;12.154;2022-12-20T06:36:15;34.50;;;21.90;;
11443;SDS011;5778;47.856;12.154;2022-12-20T06:38:42;31.30;;;20.47;;
11443;SDS011;5778;47.856;12.154;2022-12-20T06:41:09;30.27;;;21.27;;
11443;SDS011;5778;47.856;12.154;2022-12-20T06:43:39;30.83;;;20.93;;
11443;SDS011;5778;47.856;12.154;2022-12-20T06:46:06;33.37;;;21.97;;
11443;SDS011;5778;47.856;12.154;2022-12-20T06:48:35;30.03;;;20.73;;
11443;SDS011;5778;47.856;12.154;2022-12-20T06:51:04;32.97;;;21.40;;
11443;SDS011;5778;47.856;12.154;2022-12-20T06:53:31;31.90;;;21.30;;
11443;SDS011;5778;47.856;12.154;2022-12-20T06:55:58;32.00;;;20.33;;
11443;SDS011;5778;47.856;12.154;2022-12-20T06:58:25;29.60;;;20.57;;
11443;SDS011;5778;47.856;12.154;2022-12-20T07:00:54;29.27;;;20.23;;
11443;SDS011;5778;47.856;12.154;2022-12-20T07:03:21;36.30;;;22.70;;
11443;SDS011;5778;47.856;12.154;2022-12-20T07:05:50;32.57;;;21.27;;
11443;SDS011;5778;47.856;12.154;2022-12-20T07:08:17;27.10;;;20.23;;
11443;SDS011;5778;47.856;12.154;2022-12-20T07:10:44;32.53;;;20.67;;
11443;SDS011;5778;47.856;12.154;2022-12-20T07:13:13;34.73;;;21.63;;
11443;SDS011;5778;47.856;12.154;2022-12-20T07:15:41;27.00;;;19.53;;
11443;SDS011;5778;47.856;12.154;2022-12-20T07:18:09;29.03;;;20.40;;
11443;SDS011;5778;47.856;12.154;2022-12-20T07:20:36;32.77;;;22.87;;
11443;SDS011;5778;47.856;12.154;2022-12-20T07:23:03;33.07;;;22.90;;
11443;SDS011;5778;47.856;12.154;2022-12-20T07:25:30;34.63;;;21.60;;
11443;SDS011;5778;47.856;12.154;2022-12-20T07:27:56;37.53;;;23.83;;
11443;SDS011;5778;47.856;12.154;2022-12-20T07:30:23;35.43;;;23.30;;
11443;SDS011;5778;47.856;12.154;2022-12-20T07:32:50;34.33;;;22.37;;
11443;SDS011;5778;47.856;12.154;2022-12-20T07:35:19;33.83;;;22.80;;
11443;SDS011;5778;47.856;12.154;2022-12-20T07:37:46;31.87;;;22.10;;
11443;SDS011;5778;47.856;12.154;2022-12-20T07:40:13;34.07;;;23.20;;
11443;SDS011;5778;47.856;12.154;2022-12-20T07:42:41;33.90;;;23.50;;
11443;SDS011;5778;47.856;12.154;2022-12-20T07:45:08;46.80;;;31.10;;
11443;SDS011;5778;47.856;12.154;2022-12-20T07:47:35;45.13;;;30.40;;
11443;SDS011;5778;47.856;12.154;2022-12-20T07:50:02;42.33;;;27.57;;
11443;SDS011;5778;47.856;12.154;2022-12-20T07:52:31;38.63;;;24.90;;
11443;SDS011;5778;47.856;12.154;2022-12-20T07:55:02;37.30;;;25.03;;
11443;SDS011;5778;47.856;12.154;2022-12-20T07:57:35;42.17;;;27.00;;
11443;SDS011;5778;47.856;12.154;2022-12-20T08:00:08;36.70;;;24.23;;
11443;SDS011;5778;47.856;12.154;2022-12-20T08:02:39;36.80;;;23.70;;
11443;SDS011;5778;47.856;12.154;2022-12-20T08:05:12;38.33;;;25.03;;
11443;SDS011;5778;47.856;12.154;2022-12-20T08:07:41;42.03;;;25.27;;
11443;SDS011;5778;47.856;12.154;2022-12-20T08:10:10;35.20;;;24.93;;
11443;SDS011;5778;47.856;12.154;2022-12-20T08:12:40;32.97;;;23.53;;
11443;SDS011;5778;47.856;12.154;2022-12-20T08:15:10;34.97;;;23.83;;
11443;SDS011;5778;47.856;12.154;2022-12-20T08:17:37;34.50;;;23.57;;
11443;SDS011;5778;47.856;12.154;2022-12-20T08:20:05;32.80;;;23.70;;
11443;SDS011;5778;47.856;12.154;2022-12-20T08:22:32;33.70;;;23.83;;
11443;SDS011;5778;47.856;12.154;2022-12-20T08:25:05;32.30;;;22.83;;
11443;SDS011;5778;47.856;12.154;2022-12-20T08:27:33;30.77;;;22.50;;
11443;SDS011;5778;47.856;12.154;2022-12-20T08:30:00;46.93;;;28.40;;
11443;SDS011;5778;47.856;12.154;2022-12-20T08:32:27;52.67;;;29.97;;
11443;SDS011;5778;47.856;12.154;2022-12-20T08:34:54;42.30;;;26.97;;
11443;SDS011;5778;47.856;12.154;2022-12-20T08:37:21;36.93;;;25.20;;
11443;SDS011;5778;47.856;12.154;2022-12-20T08:39:47;36.40;;;24.77;;
11443;SDS011;5778;47.856;12.154;2022-12-20T08:42:16;32.93;;;23.60;;
11443;SDS011;5778;47.856;12.154;2022-12-20T08:44:43;37.53;;;23.93;;
11443;SDS011;5778;47.856;12.154;2022-12-20T08:47:10;34.33;;;24.43;;
11443;SDS011;5778;47.856;12.154;2022-12-20T08:49:37;35.73;;;23.97;;
11443;SDS011;5778;47.856;12.154;2022-12-20T08:52:04;37.53;;;23.13;;
11443;SDS011;5778;47.856;12.154;2022-12-20T08:54:31;35.60;;;23.27;;
11443;SDS011;5778;47.856;12.154;2022-12-20T08:56:58;33.10;;;23.03;;
11443;SDS011;5778;47.856;12.154;2022-12-20T08:59:26;35.30;;;24.67;;
11443;SDS011;5778;47.856;12.154;2022-12-20T09:01:53;46.83;;;28.63;;
11443;SDS011;5778;47.856;12.154;2022-12-20T09:04:20;51.67;;;30.97;;
11443;SDS011;5778;47.856;12.154;2022-12-20T09:06:47;48.40;;;29.10;;
11443;SDS011;5778;47.856;12.154;2022-12-20T09:09:14;45.80;;;29.83;;
11443;SDS011;5778;47.856;12.154;2022-12-20T09:11:41;43.10;;;28.33;;
11443;SDS011;5778;47.856;12.154;2022-12-20T09:14:08;41.50;;;26.77;;
11443;SDS011;5778;47.856;12.154;2022-12-20T09:16:36;49.87;;;32.13;;
11443;SDS011;5778;47.856;12.154;2022-12-20T09:19:03;45.40;;;28.87;;
11443;SDS011;5778;47.856;12.154;2022-12-20T09:21:30;46.87;;;29.07;;
11443;SDS011;5778;47.856;12.154;2022-12-20T09:23:58;48.10;;;32.40;;
11443;SDS011;5778;47.856;12.154;2022-12-20T09:26:24;53.27;;;33.47;;
11443;SDS011;5778;47.856;12.154;2022-12-20T09:28:52;47.80;;;31.27;;
11443;SDS011;5778;47.856;12.154;2022-12-20T09:31:20;42.40;;;29.93;;
11443;SDS011;5778;47.856;12.154;2022-12-20T09:33:51;44.67;;;31.43;;
11443;SDS011;5778;47.856;12.154;2022-12-20T09:36:19;43.40;;;29.67;;
11443;SDS011;5778;47.856;12.154;2022-12-20T09:38:47;42.10;;;29.40;;
11443;SDS011;5778;47.856;12.154;2022-12-20T09:41:18;45.30;;;30.37;;
11443;SDS011;5778;47.856;12.154;2022-12-20T09:43:51;43.13;;;29.90;;
11443;SDS011;5778;47.856;12.154;2022-12-20T09:46:18;39.27;;;29.17;;
11443;SDS011;5778;47.856;12.154;2022-12-20T09:48:45;39.17;;;28.00;;
11443;SDS011;5778;47.856;12.154;2022-12-20T09:51:18;42.47;;;28.87;;
11443;SDS011;5778;47.856;12.154;2022-12-20T09:54:02;35.67;;;25.47;;
11443;SDS011;5778;47.856;12.154;2022-12-20T09:56:55;40.50;;;27.57;;
11443;SDS011;5778;47.856;12.154;2022-12-20T09:59:25;34.90;;;25.80;;
11443;SDS011;5778;47.856;12.154;2022-12-20T10:01:53;35.77;;;24.70;;
11443;SDS011;5778;47.856;12.154;2022-12-20T10:04:21;34.73;;;26.30;;
11443;SDS011;5778;47.856;12.154;2022-12-20T10:06:56;36.53;;;26.73;;
11443;SDS011;5778;47.856;12.154;2022-12-20T10:09:40;35.37;;;24.80;;
11443;SDS011;5778;47.856;12.154;2022-12-20T10:12:20;32.57;;;24.80;;
11443;SDS011;5778;47.856;12.154;2022-12-20T10:15:06;31.77;;;23.53;;
11443;SDS011;5778;47.856;12.154;2022-12-20T10:17:45;28.50;;;21.30;;
11443;SDS011;5778;47.856;12.154;2022-12-20T10:20:29;30.73;;;23.63;;
11443;SDS011;5778;47.856;12.154;2022-12-20T10:23:06;28.37;;;21.70;;
11443;SDS011;5778;47.856;12.154;2022-12-20T10:25:38;27.73;;;20.43;;
11443;SDS011;5778;47.856;12.154;2022-12-20T10:28:09;26.23;;;19.00;;
11443;SDS011;5778;47.856;12.154;2022-12-20T10:30:39;27.37;;;20.07;;
11443;SDS011;5778;47.856;12.154;2022-12-20T10:33:09;25.87;;;19.73;;
11443;SDS011;5778;47.856;12.154;2022-12-20T10:35:43;26.30;;;19.73;;
11443;SDS011;5778;47.856;12.154;2022-12-20T10:38:12;24.47;;;18.77;;
11443;SDS011;5778;47.856;12.154;2022-12-20T10:40:42;24.73;;;18.97;;
11443;SDS011;5778;47.856;12.154;2022-12-20T10:43:13;24.37;;;18.47;;
11443;SDS011;5778;47.856;12.154;2022-12-20T10:45:43;25.57;;;18.80;;
11443;SDS011;5778;47.856;12.154;2022-12-20T10:48:25;24.90;;;19.20;;
11443;SDS011;5778;47.856;12.154;2022-12-20T10:50:56;23.43;;;18.03;;
11443;SDS011;5778;47.856;12.154;2022-12-20T10:53:26;23.13;;;18.60;;
11443;SDS011;5778;47.856;12.154;2022-12-20T10:56:03;24.40;;;18.97;;
11443;SDS011;5778;47.856;12.154;2022-12-20T10:58:38;21.23;;;16.97;;
11443;SDS011;5778;47.856;12.154;2022-12-20T11:01:07;21.30;;;17.20;;
11443;SDS011;5778;47.856;12.154;2022-12-20T11:03:49;18.10;;;15.43;;
11443;SDS011;5778;47.856;12.154;2022-12-20T11:06:20;22.67;;;17.53;;
11443;SDS011;5778;47.856;12.154;2022-12-20T11:08:50;20.50;;;16.47;;
11443;SDS011;5778;47.856;12.154;2022-12-20T11:11:18;22.70;;;17.17;;
11443;SDS011;5778;47.856;12.154;2022-12-20T11:13:49;26.30;;;17.67;;
11443;SDS011;5778;47.856;12.154;2022-12-20T11:16:24;24.50;;;16.73;;
11443;SDS011;5778;47.856;12.154;2022-12-20T11:19:02;22.23;;;16.60;;
11443;SDS011;5778;47.856;12.154;2022-12-20T11:21:42;22.93;;;18.27;;
11443;SDS011;5778;47.856;12.154;2022-12-20T11:24:17;25.33;;;19.53;;
11443;SDS011;5778;47.856;12.154;2022-12-20T11:26:59;28.10;;;19.63;;
11443;SDS011;5778;47.856;12.154;2022-12-20T11:29:47;28.70;;;20.57;;
11443;SDS011;5778;47.856;12.154;2022-12-20T11:32:28;28.30;;;20.00;;
11443;SDS011;5778;47.856;12.154;2022-12-20T11:35:08;24.07;;;18.20;;
11443;SDS011;5778;47.856;12.154;2022-12-20T11:37:42;24.37;;;19.00;;
11443;SDS011;5778;47.856;12.154;2022-12-20T11:40:28;21.47;;;17.70;;
11443;SDS011;5778;47.856;12.154;2022-12-20T11:43:03;30.97;;;21.70;;
11443;SDS011;5778;47.856;12.154;2022-12-20T11:45:58;32.97;;;21.03;;
11443;SDS011;5778;47.856;12.154;2022-12-20T11:48:40;24.13;;;17.77;;
11443;SDS011;5778;47.856;12.154;2022-12-20T11:51:20;39.60;;;24.17;;
11443;SDS011;5778;47.856;12.154;2022-12-20T11:53:50;31.03;;;20.57;;
11443;SDS011;5778;47.856;12.154;2022-12-20T11:56:23;19.93;;;15.87;;
11443;SDS011;5778;47.856;12.154;2022-12-20T11:58:54;19.27;;;15.63;;
11443;SDS011;5778;47.856;12.154;2022-12-20T12:01:28;19.10;;;14.83;;
11443;SDS011;5778;47.856;12.154;2022-12-20T12:04:02;18.93;;;15.20;;
11443;SDS011;5778;47.856;12.154;2022-12-20T12:06:36;18.93;;;14.60;;
11443;SDS011;5778;47.856;12.154;2022-12-20T12:09:11;18.27;;;14.80;;
11443;SDS011;5778;47.856;12.154;2022-12-20T12:11:48;19.33;;;15.17;;
11443;SDS011;5778;47.856;12.154;2022-12-20T12:14:24;18.63;;;14.53;;
11443;SDS011;5778;47.856;12.154;2022-12-20T12:17:05;19.87;;;15.37;;
11443;SDS011;5778;47.856;12.154;2022-12-20T12:19:39;19.70;;;15.40;;
11443;SDS011;5778;47.856;12.154;2022-12-20T12:22:13;25.67;;;16.30;;
11443;SDS011;5778;47.856;12.154;2022-12-20T12:24:46;25.23;;;16.97;;
11443;SDS011;5778;47.856;12.154;2022-12-20T12:27:20;29.43;;;17.20;;
11443;SDS011;5778;47.856;12.154;2022-12-20T12:29:49;21.23;;;15.90;;
11443;SDS011;5778;47.856;12.154;2022-12-20T12:32:19;25.50;;;17.93;;
11443;SDS011;5778;47.856;12.154;2022-12-20T12:34:59;26.00;;;17.13;;
11443;SDS011;5778;47.856;12.154;2022-12-20T12:37:42;18.40;;;14.90;;
11443;SDS011;5778;47.856;12.154;2022-12-20T12:40:32;23.30;;;15.90;;
11443;SDS011;5778;47.856;12.154;2022-12-20T12:43:22;23.20;;;15.37;;
11443;SDS011;5778;47.856;12.154;2022-12-20T12:46:16;20.17;;;14.67;;
11443;SDS011;5778;47.856;12.154;2022-12-20T12:48:49;21.50;;;15.90;;
11443;SDS011;5778;47.856;12.154;2022-12-20T12:51:21;18.57;;;14.70;;
11443;SDS011;5778;47.856;12.154;2022-12-20T12:53:54;26.37;;;18.23;;
11443;SDS011;5778;47.856;12.154;2022-12-20T12:56:29;20.63;;;15.90;;
11443;SDS011;5778;47.856;12.154;2022-12-20T12:59:18;19.33;;;15.40;;
11443;SDS011;5778;47.856;12.154;2022-12-20T13:01:48;23.87;;;16.07;;
11443;SDS011;5778;47.856;12.154;2022-12-20T13:04:27;17.57;;;14.30;;
11443;SDS011;5778;47.856;12.154;2022-12-20T13:06:56;18.30;;;14.90;;
11443;SDS011;5778;47.856;12.154;2022-12-20T13:09:39;20.07;;;15.43;;
11443;SDS011;5778;47.856;12.154;2022-12-20T13:39:51;22.00;;;18.37;;
11443;SDS011;5778;47.856;12.154;2022-12-20T13:42:22;24.20;;;19.57;;
11443;SDS011;5778;47.856;12.154;2022-12-20T13:45:00;25.87;;;20.50;;
11443;SDS011;5778;47.856;12.154;2022-12-20T13:47:36;25.60;;;21.07;;
11443;SDS011;5778;47.856;12.154;2022-12-20T13:50:22;24.87;;;19.40;;
11443;SDS011;5778;47.856;12.154;2022-12-20T13:52:52;28.47;;;21.27;;
11443;SDS011;5778;47.856;12.154;2022-12-20T13:55:29;27.17;;;22.67;;
11443;SDS011;5778;47.856;12.154;2022-12-20T13:58:02;25.37;;;20.80;;
11443;SDS011;5778;47.856;12.154;2022-12-20T14:00:30;30.30;;;22.80;;
11443;SDS011;5778;47.856;12.154;2022-12-20T14:02:58;28.83;;;21.20;;
11443;SDS011;5778;47.856;12.154;2022-12-20T14:05:31;25.80;;;19.50;;
11443;SDS011;5778;47.856;12.154;2022-12-20T14:08:01;23.80;;;18.53;;
11443;SDS011;5778;47.856;12.154;2022-12-20T14:10:31;25.43;;;19.40;;
11443;SDS011;5778;47.856;12.154;2022-12-20T14:12:59;31.03;;;22.83;;
11443;SDS011;5778;47.856;12.154;2022-12-20T14:15:28;58.50;;;32.43;;
11443;SDS011;5778;47.856;12.154;2022-12-20T14:17:56;38.57;;;26.53;;
11443;SDS011;5778;47.856;12.154;2022-12-20T14:20:33;34.57;;;24.03;;
11443;SDS011;5778;47.856;12.154;2022-12-20T14:23:02;29.23;;;21.13;;
11443;SDS011;5778;47.856;12.154;2022-12-20T14:25:40;22.93;;;18.27;;
11443;SDS011;5778;47.856;12.154;2022-12-20T14:28:14;23.00;;;18.43;;
11443;SDS011;5778;47.856;12.154;2022-12-20T14:30:46;24.63;;;18.90;;
11443;SDS011;5778;47.856;12.154;2022-12-20T14:33:27;22.53;;;17.07;;
11443;SDS011;5778;47.856;12.154;2022-12-20T14:36:01;19.50;;;15.87;;
11443;SDS011;5778;47.856;12.154;2022-12-20T14:38:33;19.30;;;16.03;;
11443;SDS011;5778;47.856;12.154;2022-12-20T14:41:00;17.97;;;15.23;;
11443;SDS011;5778;47.856;12.154;2022-12-20T14:43:31;17.40;;;14.73;;
11443;SDS011;5778;47.856;12.154;2022-12-20T14:46:06;17.20;;;14.20;;
11443;SDS011;5778;47.856;12.154;2022-12-20T14:48:39;21.77;;;15.70;;
11443;SDS011;5778;47.856;12.154;2022-12-20T14:51:07;23.40;;;17.77;;
11443;SDS011;5778;47.856;12.154;2022-12-20T14:53:35;23.63;;;18.37;;
11443;SDS011;5778;47.856;12.154;2022-12-20T14:56:04;21.30;;;17.17;;
11443;SDS011;5778;47.856;12.154;2022-12-20T14:58:39;21.50;;;17.57;;
11443;SDS011;5778;47.856;12.154;2022-12-20T15:01:16;20.03;;;16.60;;
11443;SDS011;5778;47.856;12.154;2022-12-20T15:03:47;21.23;;;16.00;;
11443;SDS011;5778;47.856;12.154;2022-12-20T15:06:30;19.97;;;15.80;;
11443;SDS011;5778;47.856;12.154;2022-12-20T15:08:59;16.40;;;14.03;;
11443;SDS011;5778;47.856;12.154;2022-12-20T15:11:26;39.90;;;23.90;;
11443;SDS011;5778;47.856;12.154;2022-12-20T15:13:54;106.30;;;50.70;;
11443;SDS011;5778;47.856;12.154;2022-12-20T15:16:23;36.33;;;23.83;;
